Time;durP1;ratioP1;P1;durP2;ratioP2;P2;SDS_P1;SDS_P2;PMS_P1;PMS_P2;Temp;Humidity;BMP_temperature;BMP_pressure;BME280_temperature;BME280_humidity;BME280_pressure;Samples;Min_cycle;Max_cycle;Signal;HPM_P1;HPM_P2
2022/03/31 00:00:39;;;;;;;;;11.75;10.75;;;;;;;;5096716;27;45420;-70
2022/03/31 00:03:08;;;;;;;;;14.75;11.25;;;;;;;;5097521;27;45387;-70
2022/03/31 00:05:34;;;;;;;;;12.75;10.50;;;;;;;;5095912;27;45537;-70
2022/03/31 00:08:00;;;;;;;;;12.50;11.75;;;;;;;;5093842;27;46011;-71
2022/03/31 00:10:27;;;;;;;;;12.00;12.00;;;;;;;;5094156;27;45449;-70
2022/03/31 00:12:53;;;;;;;;;11.00;11.00;;;;;;;;5095655;27;45520;-70
2022/03/31 00:15:19;;;;;;;;;12.50;12.25;;;;;;;;5095608;27;45340;-71
2022/03/31 00:17:45;;;;;;;;;12.75;11.50;;;;;;;;5098079;27;46398;-70
2022/03/31 00:20:11;;;;;;;;;11.25;11.25;;;;;;;;5095937;27;45312;-70
2022/03/31 00:22:36;;;;;;;;;12.00;12.00;;;;;;;;5097410;27;45323;-70
2022/03/31 00:25:01;;;;;;;;;13.50;13.00;;;;;;;;5096259;27;45453;-70
2022/03/31 00:27:27;;;;;;;;;11.00;10.25;;;;;;;;5094778;27;45525;-71
2022/03/31 00:29:52;;;;;;;;;15.25;11.75;;;;;;;;5097384;27;45390;-71
2022/03/31 00:32:17;;;;;;;;;9.25;7.75;;;;;;;;5095769;27;45671;-70
2022/03/31 00:34:42;;;;;;;;;12.75;10.75;;;;;;;;5097057;27;45347;-71
2022/03/31 00:37:08;;;;;;;;;11.75;10.75;;;;;;;;5094199;27;46559;-71
2022/03/31 00:39:33;;;;;;;;;12.50;11.25;;;;;;;;5096009;27;45531;-71
2022/03/31 00:41:59;;;;;;;;;10.25;10.25;;;;;;;;5094050;27;45540;-71
2022/03/31 00:44:25;;;;;;;;;13.25;12.75;;;;;;;;5095924;27;45651;-70
2022/03/31 00:46:52;;;;;;;;;13.00;13.00;;;;;;;;5095452;27;45408;-71
2022/03/31 00:49:18;;;;;;;;;10.75;10.75;;;;;;;;5094594;27;45916;-70
2022/03/31 00:51:43;;;;;;;;;9.75;9.00;;;;;;;;5077130;27;45440;-70
2022/03/31 00:54:09;;;;;;;;;11.00;11.00;;;;;;;;5097113;27;45357;-70
2022/03/31 00:56:35;;;;;;;;;11.25;10.25;;;;;;;;5096619;27;49938;-71
2022/03/31 00:59:01;;;;;;;;;11.75;11.75;;;;;;;;5095250;27;45234;-70
2022/03/31 01:01:27;;;;;;;;;14.00;14.00;;;;;;;;5093902;27;45496;-69
2022/03/31 01:03:52;;;;;;;;;13.00;11.25;;;;;;;;5093353;27;45558;-70
2022/03/31 01:06:17;;;;;;;;;17.50;14.25;;;;;;;;5095706;27;46413;-70
2022/03/31 01:08:43;;;;;;;;;12.00;12.00;;;;;;;;5095128;27;45275;-71
2022/03/31 01:11:08;;;;;;;;;11.50;10.50;;;;;;;;5095022;27;45351;-71
2022/03/31 01:13:33;;;;;;;;;13.25;12.25;;;;;;;;5095618;27;46546;-71
2022/03/31 01:15:58;;;;;;;;;11.50;11.50;;;;;;;;5093483;27;46310;-70
2022/03/31 01:18:25;;;;;;;;;11.00;11.00;;;;;;;;5077182;27;45351;-71
2022/03/31 01:20:50;;;;;;;;;10.00;10.00;;;;;;;;5097626;27;45331;-69
2022/03/31 01:23:15;;;;;;;;;11.75;11.50;;;;;;;;5094905;27;45504;-70
2022/03/31 01:25:41;;;;;;;;;15.00;10.50;;;;;;;;5093202;27;45647;-70
2022/03/31 01:28:07;;;;;;;;;10.00;10.00;;;;;;;;5094954;27;45343;-70
2022/03/31 01:30:32;;;;;;;;;14.25;12.75;;;;;;;;5095255;27;45358;-70
2022/03/31 01:32:57;;;;;;;;;12.25;12.25;;;;;;;;5097424;27;45665;-70
2022/03/31 01:35:23;;;;;;;;;10.50;9.25;;;;;;;;5095824;27;45734;-70
2022/03/31 01:37:49;;;;;;;;;12.00;11.25;;;;;;;;5093417;27;45271;-71
2022/03/31 01:40:14;;;;;;;;;13.00;11.00;;;;;;;;5094582;27;45331;-70
2022/03/31 01:42:40;;;;;;;;;9.50;9.00;;;;;;;;5093281;27;45472;-70
2022/03/31 01:45:07;;;;;;;;;12.50;11.00;;;;;;;;5095876;27;45252;-71
2022/03/31 01:47:32;;;;;;;;;5.00;5.00;;;;;;;;5094099;27;45545;-70
2022/03/31 01:49:57;;;;;;;;;11.25;10.50;;;;;;;;5092901;27;45286;-70
2022/03/31 01:52:23;;;;;;;;;13.25;11.00;;;;;;;;5093106;27;45434;-70
2022/03/31 01:54:49;;;;;;;;;13.50;12.25;;;;;;;;5093742;27;45515;-70
2022/03/31 01:57:14;;;;;;;;;9.75;8.75;;;;;;;;5094786;27;45591;-70
2022/03/31 01:59:42;;;;;;;;;10.75;9.00;;;;;;;;5096324;27;45804;-70
2022/03/31 02:02:08;;;;;;;;;12.00;11.00;;;;;;;;5093777;27;45583;-71
2022/03/31 02:04:34;;;;;;;;;12.00;10.75;;;;;;;;5094390;27;46639;-70
2022/03/31 02:06:59;;;;;;;;;11.25;9.00;;;;;;;;5093221;27;45496;-70
2022/03/31 02:09:25;;;;;;;;;12.00;11.75;;;;;;;;5079415;27;45418;-71
2022/03/31 02:11:52;;;;;;;;;11.75;11.25;;;;;;;;5096643;27;45430;-70
2022/03/31 02:14:18;;;;;;;;;13.75;11.25;;;;;;;;5094110;27;46386;-70
2022/03/31 02:16:45;;;;;;;;;12.00;11.25;;;;;;;;5090519;27;45516;-70
2022/03/31 02:19:11;;;;;;;;;12.25;10.25;;;;;;;;5094625;27;45431;-70
2022/03/31 02:21:36;;;;;;;;;10.75;10.75;;;;;;;;5093140;27;45448;-70
2022/03/31 02:24:02;;;;;;;;;13.25;13.25;;;;;;;;5096376;27;46756;-70
2022/03/31 02:26:27;;;;;;;;;9.50;9.50;;;;;;;;5092764;27;45444;-70
2022/03/31 02:28:52;;;;;;;;;12.00;11.75;;;;;;;;5090646;27;45476;-70
2022/03/31 02:31:17;;;;;;;;;13.00;11.50;;;;;;;;5091851;27;45517;-70
2022/03/31 02:33:43;;;;;;;;;11.75;11.75;;;;;;;;5092184;27;45588;-71
2022/03/31 02:36:08;;;;;;;;;10.25;10.25;;;;;;;;5095291;27;45318;-70
2022/03/31 02:38:34;;;;;;;;;11.00;9.75;;;;;;;;5093152;27;45366;-70
2022/03/31 02:40:59;;;;;;;;;10.50;9.00;;;;;;;;5093936;27;45441;-70
2022/03/31 02:43:24;;;;;;;;;14.25;10.75;;;;;;;;5091835;27;45422;-70
2022/03/31 02:45:50;;;;;;;;;11.25;11.00;;;;;;;;5095043;27;45376;-70
2022/03/31 02:48:15;;;;;;;;;12.25;11.75;;;;;;;;5095369;27;45418;-71
2022/03/31 02:50:41;;;;;;;;;13.50;11.25;;;;;;;;5093769;27;45640;-70
2022/03/31 02:55:49;;;;;;;;;10.25;10.25;;;;;;;;5093834;27;45477;-70
2022/03/31 02:58:15;;;;;;;;;12.25;10.00;;;;;;;;5092289;27;45288;-70
2022/03/31 03:00:40;;;;;;;;;11.75;11.75;;;;;;;;5093890;27;45459;-70
2022/03/31 03:03:06;;;;;;;;;11.75;9.50;;;;;;;;5080357;27;45420;-70
2022/03/31 03:05:31;;;;;;;;;11.50;10.50;;;;;;;;5095205;27;46275;-70
2022/03/31 03:07:57;;;;;;;;;10.25;10.25;;;;;;;;5087443;27;45337;-70
2022/03/31 03:10:22;;;;;;;;;15.00;12.25;;;;;;;;5085571;27;45385;-70
2022/03/31 03:12:49;;;;;;;;;13.50;11.25;;;;;;;;5096433;27;46197;-70
2022/03/31 03:15:16;;;;;;;;;12.50;11.75;;;;;;;;5098663;27;45370;-70
2022/03/31 03:17:42;;;;;;;;;11.25;10.00;;;;;;;;5098967;27;45308;-70
2022/03/31 03:20:13;;;;;;;;;11.25;10.25;;;;;;;;5095495;27;45500;-70
2022/03/31 03:22:42;;;;;;;;;11.75;11.75;;;;;;;;5096759;27;47152;-70
2022/03/31 03:25:07;;;;;;;;;12.00;12.00;;;;;;;;5098062;27;45367;-70
2022/03/31 03:27:33;;;;;;;;;8.75;8.75;;;;;;;;5096776;27;45293;-71
2022/03/31 03:29:58;;;;;;;;;13.50;12.75;;;;;;;;5098655;27;45622;-70
2022/03/31 03:32:24;;;;;;;;;11.00;9.00;;;;;;;;5097015;27;46497;-70
2022/03/31 03:34:49;;;;;;;;;12.25;10.25;;;;;;;;5094882;27;45736;-70
2022/03/31 03:37:14;;;;;;;;;12.00;10.25;;;;;;;;5096555;27;45441;-70
2022/03/31 03:39:39;;;;;;;;;9.50;9.25;;;;;;;;5072989;27;45556;-70
2022/03/31 03:42:05;;;;;;;;;12.00;10.00;;;;;;;;5098142;27;46573;-70
2022/03/31 03:44:30;;;;;;;;;11.25;11.25;;;;;;;;5095338;27;45232;-70
2022/03/31 03:46:55;;;;;;;;;9.00;9.00;;;;;;;;5095117;27;45637;-70
2022/03/31 03:49:21;;;;;;;;;12.75;11.25;;;;;;;;5097035;27;45271;-70
2022/03/31 03:51:47;;;;;;;;;12.25;11.00;;;;;;;;5095071;27;45772;-70
2022/03/31 03:54:12;;;;;;;;;10.00;9.00;;;;;;;;5095971;27;45362;-71
2022/03/31 03:56:37;;;;;;;;;14.75;11.75;;;;;;;;5095670;27;45342;-70
2022/03/31 03:59:02;;;;;;;;;10.75;9.50;;;;;;;;5078443;27;45626;-70
2022/03/31 04:01:28;;;;;;;;;9.50;9.00;;;;;;;;5094949;27;46211;-70
2022/03/31 04:03:53;;;;;;;;;10.50;10.00;;;;;;;;5095329;27;45507;-70
2022/03/31 04:06:18;;;;;;;;;9.50;9.25;;;;;;;;5096409;27;45345;-71
2022/03/31 04:08:43;;;;;;;;;9.50;9.00;;;;;;;;5096271;27;45266;-70
2022/03/31 04:11:08;;;;;;;;;11.50;11.50;;;;;;;;5093546;27;46611;-70
2022/03/31 04:13:34;;;;;;;;;10.00;10.00;;;;;;;;5077610;27;45496;-70
2022/03/31 04:15:59;;;;;;;;;10.00;10.00;;;;;;;;5096770;27;45372;-70
2022/03/31 04:18:24;;;;;;;;;11.50;9.00;;;;;;;;5096514;27;45536;-70
2022/03/31 04:20:49;;;;;;;;;11.00;9.25;;;;;;;;5097365;27;47495;-71
2022/03/31 04:23:14;;;;;;;;;10.00;9.75;;;;;;;;5095032;27;45540;-70
2022/03/31 04:25:40;;;;;;;;;10.50;10.25;;;;;;;;5078968;27;46240;-70
2022/03/31 04:28:06;;;;;;;;;13.75;10.75;;;;;;;;5096186;27;45434;-70
2022/03/31 04:30:32;;;;;;;;;13.75;11.00;;;;;;;;5080961;27;45646;-70
2022/03/31 04:32:57;;;;;;;;;13.50;11.00;;;;;;;;5097844;27;45464;-70
2022/03/31 04:35:22;;;;;;;;;11.50;11.25;;;;;;;;5096875;27;45520;-70
2022/03/31 04:37:47;;;;;;;;;14.00;11.00;;;;;;;;5095830;27;45489;-71
2022/03/31 04:40:14;;;;;;;;;10.00;10.00;;;;;;;;5095148;27;46524;-71
2022/03/31 04:42:39;;;;;;;;;7.75;7.75;;;;;;;;5094487;27;45304;-70
2022/03/31 04:45:05;;;;;;;;;10.50;9.00;;;;;;;;5097462;27;45407;-70
2022/03/31 04:47:30;;;;;;;;;11.25;9.50;;;;;;;;5086185;27;45363;-70
2022/03/31 04:49:56;;;;;;;;;8.00;7.25;;;;;;;;5091312;27;45293;-70
2022/03/31 04:52:21;;;;;;;;;9.25;9.25;;;;;;;;5095210;27;45394;-70
2022/03/31 04:54:47;;;;;;;;;8.25;8.25;;;;;;;;5094339;27;45481;-70
2022/03/31 04:57:16;;;;;;;;;11.00;11.00;;;;;;;;5096595;27;45268;-70
2022/03/31 04:59:41;;;;;;;;;10.25;10.25;;;;;;;;5097067;27;45537;-70
2022/03/31 05:02:07;;;;;;;;;10.75;9.50;;;;;;;;5087616;27;45427;-70
2022/03/31 05:04:32;;;;;;;;;7.00;7.00;;;;;;;;5086135;27;45437;-70
2022/03/31 05:06:57;;;;;;;;;8.00;8.00;;;;;;;;5093511;27;45406;-70
2022/03/31 05:09:23;;;;;;;;;9.25;8.00;;;;;;;;5094220;27;46098;-70
2022/03/31 05:11:48;;;;;;;;;8.00;8.00;;;;;;;;5096107;27;45275;-70
2022/03/31 05:14:13;;;;;;;;;11.00;7.00;;;;;;;;5095452;27;45340;-70
2022/03/31 05:16:38;;;;;;;;;8.25;8.25;;;;;;;;5095409;27;45459;-70
2022/03/31 05:19:04;;;;;;;;;7.50;7.50;;;;;;;;5074134;27;46656;-70
2022/03/31 05:21:29;;;;;;;;;8.75;6.50;;;;;;;;5094857;27;45558;-70
2022/03/31 05:23:54;;;;;;;;;7.00;7.00;;;;;;;;5097394;27;45283;-70
2022/03/31 05:26:19;;;;;;;;;8.00;8.00;;;;;;;;5088920;27;45467;-70
2022/03/31 05:28:44;;;;;;;;;10.00;8.25;;;;;;;;5094736;27;45471;-70
2022/03/31 05:31:10;;;;;;;;;8.00;8.00;;;;;;;;5094679;27;45470;-71
2022/03/31 05:33:36;;;;;;;;;7.25;7.25;;;;;;;;5095000;27;45462;-71
2022/03/31 05:36:01;;;;;;;;;6.75;6.75;;;;;;;;5097452;27;45406;-71
2022/03/31 05:38:27;;;;;;;;;9.50;7.50;;;;;;;;5092981;27;45967;-74
2022/03/31 05:40:52;;;;;;;;;9.00;7.75;;;;;;;;5093073;27;45435;-72
2022/03/31 05:43:17;;;;;;;;;6.25;6.25;;;;;;;;5090701;27;45292;-70
2022/03/31 05:45:42;;;;;;;;;7.75;7.00;;;;;;;;5091822;27;45485;-71
2022/03/31 05:48:08;;;;;;;;;10.25;9.00;;;;;;;;5089698;27;46725;-71
2022/03/31 05:50:33;;;;;;;;;7.00;7.00;;;;;;;;5085418;27;45300;-71
2022/03/31 05:52:58;;;;;;;;;7.50;6.00;;;;;;;;5090587;27;46656;-71
2022/03/31 05:55:23;;;;;;;;;6.25;6.25;;;;;;;;5094277;27;49500;-71
2022/03/31 05:57:49;;;;;;;;;6.50;6.50;;;;;;;;5090050;27;46799;-71
2022/03/31 06:00:19;;;;;;;;;6.25;6.25;;;;;;;;5084489;27;45300;-70
2022/03/31 06:02:46;;;;;;;;;7.00;7.00;;;;;;;;5093152;27;45466;-71
2022/03/31 06:05:11;;;;;;;;;10.25;7.25;;;;;;;;5094021;27;45402;-72
2022/03/31 06:07:37;;;;;;;;;6.00;6.00;;;;;;;;5087185;27;46624;-71
2022/03/31 06:10:02;;;;;;;;;6.00;6.00;;;;;;;;5093965;27;45449;-71
2022/03/31 06:12:28;;;;;;;;;6.75;6.75;;;;;;;;5090405;27;45985;-72
2022/03/31 06:14:53;;;;;;;;;5.75;5.75;;;;;;;;5089659;27;45430;-71
2022/03/31 06:17:18;;;;;;;;;7.00;6.75;;;;;;;;5094097;27;45459;-73
2022/03/31 06:19:44;;;;;;;;;6.75;6.75;;;;;;;;5094460;27;45325;-73
2022/03/31 06:22:09;;;;;;;;;9.50;7.50;;;;;;;;5095029;27;45402;-71
2022/03/31 06:24:35;;;;;;;;;5.25;5.25;;;;;;;;5092080;27;45555;-71
2022/03/31 06:27:01;;;;;;;;;4.50;4.50;;;;;;;;5096665;27;46784;-71
2022/03/31 06:29:26;;;;;;;;;6.00;6.00;;;;;;;;5092584;27;45349;-71
2022/03/31 06:31:53;;;;;;;;;6.00;5.00;;;;;;;;5093922;27;45394;-71
2022/03/31 06:34:18;;;;;;;;;8.25;7.25;;;;;;;;5093209;27;45367;-71
2022/03/31 06:36:44;;;;;;;;;6.75;6.00;;;;;;;;5093858;27;45859;-71
2022/03/31 06:39:09;;;;;;;;;9.00;8.50;;;;;;;;5095380;27;45446;-71
2022/03/31 06:41:34;;;;;;;;;5.00;5.00;;;;;;;;5095128;27;45382;-71
2022/03/31 06:44:00;;;;;;;;;7.25;6.75;;;;;;;;5090451;27;46297;-71
2022/03/31 06:46:25;;;;;;;;;8.75;7.50;;;;;;;;5094370;27;46587;-71
2022/03/31 06:48:51;;;;;;;;;5.50;5.50;;;;;;;;5091831;27;45250;-71
2022/03/31 06:51:19;;;;;;;;;6.00;5.75;;;;;;;;5094222;27;45382;-71
2022/03/31 06:53:44;;;;;;;;;5.75;5.00;;;;;;;;5094026;27;45442;-71
2022/03/31 06:56:11;;;;;;;;;6.00;6.00;;;;;;;;5093897;27;49292;-71
2022/03/31 06:58:36;;;;;;;;;5.00;5.00;;;;;;;;5091623;27;45580;-71
2022/03/31 07:01:03;;;;;;;;;6.50;6.50;;;;;;;;5093877;27;45588;-71
2022/03/31 07:03:28;;;;;;;;;6.50;5.75;;;;;;;;5093318;27;45373;-71
2022/03/31 07:05:54;;;;;;;;;6.00;6.00;;;;;;;;5095898;27;45526;-71
2022/03/31 07:08:19;;;;;;;;;6.50;6.50;;;;;;;;5094125;27;45642;-71
2022/03/31 07:10:44;;;;;;;;;7.00;7.00;;;;;;;;5093349;27;45367;-71
2022/03/31 07:13:10;;;;;;;;;7.50;6.50;;;;;;;;5091312;27;45532;-71
2022/03/31 07:15:35;;;;;;;;;7.00;7.00;;;;;;;;5092127;27;46341;-71
2022/03/31 07:18:05;;;;;;;;;5.00;3.75;;;;;;;;5095527;27;45380;-71
2022/03/31 07:20:30;;;;;;;;;7.25;5.00;;;;;;;;5094161;27;45433;-71
2022/03/31 07:22:55;;;;;;;;;6.00;5.00;;;;;;;;5088723;27;45469;-71
2022/03/31 07:25:21;;;;;;;;;3.25;3.25;;;;;;;;5075493;27;46353;-70
2022/03/31 07:27:47;;;;;;;;;5.25;4.50;;;;;;;;5093296;27;45428;-70
2022/03/31 07:30:13;;;;;;;;;6.75;6.75;;;;;;;;5094929;27;45340;-70
2022/03/31 07:32:58;;;;;;;;;5.50;5.50;;;;;;;;5094791;27;45542;-70
2022/03/31 07:35:24;;;;;;;;;4.75;4.75;;;;;;;;5094261;27;46494;-71
2022/03/31 07:37:51;;;;;;;;;6.00;6.00;;;;;;;;5091075;27;47013;-70
2022/03/31 07:40:16;;;;;;;;;6.25;6.25;;;;;;;;5093183;27;45416;-71
2022/03/31 07:42:42;;;;;;;;;4.75;4.75;;;;;;;;5091299;27;45419;-70
2022/03/31 07:45:07;;;;;;;;;8.00;6.00;;;;;;;;5094573;27;45296;-70
2022/03/31 07:47:33;;;;;;;;;5.00;5.00;;;;;;;;5091479;27;45744;-70
2022/03/31 07:49:58;;;;;;;;;6.25;6.25;;;;;;;;5091448;27;45318;-68
2022/03/31 07:52:23;;;;;;;;;7.75;6.00;;;;;;;;5092329;27;45440;-70
2022/03/31 07:54:49;;;;;;;;;4.00;4.00;;;;;;;;5091930;27;45509;-71
2022/03/31 07:57:14;;;;;;;;;4.25;4.25;;;;;;;;5097672;27;45378;-71
2022/03/31 07:59:39;;;;;;;;;4.00;4.00;;;;;;;;5096339;27;45353;-71
2022/03/31 08:02:05;;;;;;;;;6.75;5.75;;;;;;;;5095944;27;45493;-70
2022/03/31 08:04:30;;;;;;;;;4.50;3.75;;;;;;;;5097112;27;46238;-71
2022/03/31 08:06:56;;;;;;;;;6.00;5.00;;;;;;;;5096405;27;45844;-71
2022/03/31 08:09:21;;;;;;;;;5.25;5.00;;;;;;;;5097018;27;45499;-71
2022/03/31 08:11:49;;;;;;;;;4.00;4.00;;;;;;;;5098842;27;45533;-71
2022/03/31 08:14:16;;;;;;;;;4.50;4.00;;;;;;;;5095902;27;45481;-71
2022/03/31 08:16:46;;;;;;;;;5.00;4.50;;;;;;;;5095735;27;45250;-70
2022/03/31 08:19:11;;;;;;;;;4.25;4.00;;;;;;;;5094253;27;45592;-71
2022/03/31 08:21:37;;;;;;;;;6.75;6.00;;;;;;;;5094620;27;45376;-70
2022/03/31 08:24:02;;;;;;;;;5.25;5.25;;;;;;;;5098394;27;46620;-71
2022/03/31 08:26:27;;;;;;;;;5.25;4.50;;;;;;;;5094122;27;45489;-71
2022/03/31 08:28:53;;;;;;;;;4.00;4.00;;;;;;;;5095886;27;45313;-71
2022/03/31 08:31:18;;;;;;;;;4.00;4.00;;;;;;;;5093697;27;45390;-70
2022/03/31 08:33:43;;;;;;;;;5.50;5.00;;;;;;;;5094205;27;45691;-71
2022/03/31 08:36:09;;;;;;;;;5.00;5.00;;;;;;;;5082309;27;45316;-71
2022/03/31 08:38:34;;;;;;;;;5.00;5.00;;;;;;;;5096548;27;45309;-71
2022/03/31 08:41:00;;;;;;;;;4.25;3.50;;;;;;;;5095004;27;45713;-71
2022/03/31 08:43:26;;;;;;;;;4.50;4.50;;;;;;;;5095748;27;45377;-71
2022/03/31 08:45:55;;;;;;;;;4.00;4.00;;;;;;;;5096690;27;45524;-72
2022/03/31 08:48:21;;;;;;;;;5.00;5.00;;;;;;;;5095732;27;45489;-71
2022/03/31 08:50:47;;;;;;;;;4.25;4.25;;;;;;;;5096258;27;45513;-71
2022/03/31 08:53:12;;;;;;;;;5.50;4.50;;;;;;;;5094322;27;47150;-70
2022/03/31 08:55:37;;;;;;;;;5.00;4.00;;;;;;;;5095546;27;45865;-71
2022/03/31 08:58:02;;;;;;;;;5.00;5.00;;;;;;;;5095663;27;45369;-71
2022/03/31 09:00:28;;;;;;;;;5.25;3.25;;;;;;;;5095493;27;45691;-71
2022/03/31 09:02:55;;;;;;;;;4.75;4.25;;;;;;;;5097772;27;45398;-71
2022/03/31 09:05:20;;;;;;;;;4.75;4.25;;;;;;;;5095880;27;45445;-71
2022/03/31 09:07:52;;;;;;;;;4.75;4.25;;;;;;;;5093933;27;45402;-71
2022/03/31 09:10:31;;;;;;;;;4.75;3.25;;;;;;;;5096501;27;45318;-71
2022/03/31 09:12:57;;;;;;;;;4.75;4.75;;;;;;;;5083372;27;45616;-70
2022/03/31 09:15:22;;;;;;;;;3.75;3.75;;;;;;;;5094644;27;45370;-71
2022/03/31 09:17:52;;;;;;;;;4.00;4.00;;;;;;;;5095707;27;45402;-71
2022/03/31 09:20:17;;;;;;;;;5.00;5.00;;;;;;;;5093005;27;45342;-70
2022/03/31 09:22:44;;;;;;;;;4.25;3.25;;;;;;;;5090675;27;45509;-70
2022/03/31 09:25:10;;;;;;;;;2.25;2.25;;;;;;;;5093885;27;45501;-71
2022/03/31 09:27:36;;;;;;;;;5.00;5.00;;;;;;;;5093406;27;45201;-71
2022/03/31 09:30:05;;;;;;;;;4.75;4.00;;;;;;;;5096510;27;45295;-70
2022/03/31 09:32:30;;;;;;;;;4.00;4.00;;;;;;;;5093727;27;45694;-71
2022/03/31 09:35:03;;;;;;;;;4.75;4.00;;;;;;;;5092138;27;45428;-70
2022/03/31 09:37:32;;;;;;;;;2.75;2.75;;;;;;;;5095119;27;45429;-71
2022/03/31 09:39:57;;;;;;;;;4.00;4.00;;;;;;;;5093329;27;45514;-70
2022/03/31 09:42:23;;;;;;;;;4.25;4.25;;;;;;;;5094180;27;46454;-71
2022/03/31 09:44:57;;;;;;;;;3.50;3.50;;;;;;;;5097104;27;45472;-71
2022/03/31 09:47:22;;;;;;;;;2.25;2.25;;;;;;;;5092930;27;45949;-71
2022/03/31 09:49:51;;;;;;;;;6.25;4.00;;;;;;;;5094301;27;45298;-71
2022/03/31 09:52:19;;;;;;;;;3.25;3.25;;;;;;;;5094726;27;45429;-70
2022/03/31 09:54:44;;;;;;;;;3.25;3.00;;;;;;;;5094894;27;45249;-71
2022/03/31 09:57:10;;;;;;;;;5.00;5.00;;;;;;;;5095971;27;45145;-70
2022/03/31 09:59:38;;;;;;;;;4.25;4.25;;;;;;;;5096126;27;45981;-71
2022/03/31 10:02:03;;;;;;;;;3.25;3.25;;;;;;;;5094369;27;46105;-71
2022/03/31 10:04:30;;;;;;;;;4.75;3.00;;;;;;;;5095515;27;45448;-71
2022/03/31 10:06:55;;;;;;;;;4.50;4.50;;;;;;;;5094725;27;45440;-70
2022/03/31 10:09:22;;;;;;;;;3.00;3.00;;;;;;;;5085418;27;45373;-71
2022/03/31 10:11:52;;;;;;;;;4.75;4.75;;;;;;;;5096329;27;46294;-70
2022/03/31 10:14:26;;;;;;;;;3.50;3.50;;;;;;;;5093056;27;45590;-71
2022/03/31 10:16:57;;;;;;;;;3.75;3.75;;;;;;;;5092674;27;45289;-71
2022/03/31 10:19:31;;;;;;;;;3.00;3.00;;;;;;;;5094020;27;45502;-70
2022/03/31 10:22:03;;;;;;;;;3.75;3.00;;;;;;;;5095257;27;46703;-70
2022/03/31 10:24:46;;;;;;;;;4.00;4.00;;;;;;;;5093754;27;45365;-70
2022/03/31 10:27:32;;;;;;;;;3.50;3.50;;;;;;;;5092772;27;45339;-71
2022/03/31 10:30:07;;;;;;;;;3.00;3.00;;;;;;;;5095635;27;45513;-71
2022/03/31 10:32:33;;;;;;;;;2.75;2.75;;;;;;;;5094806;27;46735;-70
2022/03/31 10:34:58;;;;;;;;;2.00;2.00;;;;;;;;5094905;27;45409;-70
2022/03/31 10:37:37;;;;;;;;;3.25;3.25;;;;;;;;5094248;27;45318;-71
2022/03/31 10:40:07;;;;;;;;;3.25;3.25;;;;;;;;5094458;27;45451;-71
2022/03/31 10:42:32;;;;;;;;;3.00;1.00;;;;;;;;5093927;27;46708;-71
2022/03/31 10:45:07;;;;;;;;;4.00;4.00;;;;;;;;5083014;27;45520;-71
2022/03/31 10:47:33;;;;;;;;;3.00;3.00;;;;;;;;5094583;27;45315;-70
2022/03/31 10:49:58;;;;;;;;;5.00;4.00;;;;;;;;5091624;27;45414;-70
2022/03/31 10:52:24;;;;;;;;;4.00;3.50;;;;;;;;5092126;27;45356;-71
2022/03/31 10:54:50;;;;;;;;;4.50;3.50;;;;;;;;5093513;27;45485;-71
2022/03/31 10:57:17;;;;;;;;;3.00;3.00;;;;;;;;5094808;27;47140;-71
2022/03/31 10:59:43;;;;;;;;;2.25;2.25;;;;;;;;5095348;27;45656;-71
2022/03/31 11:02:08;;;;;;;;;3.50;3.50;;;;;;;;5093745;27;45690;-71
2022/03/31 11:04:48;;;;;;;;;4.25;3.00;;;;;;;;5093825;27;45337;-71
2022/03/31 11:07:14;;;;;;;;;5.00;3.00;;;;;;;;5092063;27;45456;-71
2022/03/31 11:09:41;;;;;;;;;2.75;2.00;;;;;;;;5093796;27;45517;-71
2022/03/31 11:12:06;;;;;;;;;3.00;3.00;;;;;;;;5095375;27;45422;-71
2022/03/31 11:14:32;;;;;;;;;3.00;3.00;;;;;;;;5094042;27;45455;-71
2022/03/31 11:16:57;;;;;;;;;2.75;2.75;;;;;;;;5093592;27;45440;-71
2022/03/31 11:19:22;;;;;;;;;2.75;2.75;;;;;;;;5093817;27;45451;-71
2022/03/31 11:21:48;;;;;;;;;3.00;3.00;;;;;;;;5093073;27;45593;-71
2022/03/31 11:24:13;;;;;;;;;3.25;3.00;;;;;;;;5093973;27;45316;-70
2022/03/31 11:26:44;;;;;;;;;2.75;2.75;;;;;;;;5076233;27;45375;-71
2022/03/31 11:29:14;;;;;;;;;2.25;2.25;;;;;;;;5091852;27;46031;-71
2022/03/31 11:31:46;;;;;;;;;2.75;2.75;;;;;;;;5096180;27;46549;-71
2022/03/31 11:34:22;;;;;;;;;3.00;3.00;;;;;;;;5095592;27;45350;-71
2022/03/31 11:36:47;;;;;;;;;3.00;3.00;;;;;;;;5096677;27;45283;-71
2022/03/31 11:39:13;;;;;;;;;1.50;1.50;;;;;;;;5093502;27;45555;-71
2022/03/31 11:41:39;;;;;;;;;3.25;3.00;;;;;;;;5096496;27;45425;-70
2022/03/31 11:44:06;;;;;;;;;3.00;3.00;;;;;;;;5096816;27;45408;-70
2022/03/31 11:46:41;;;;;;;;;3.00;3.00;;;;;;;;5097417;27;45718;-71
2022/03/31 11:49:16;;;;;;;;;3.25;2.25;;;;;;;;5094753;27;45641;-70
2022/03/31 11:51:47;;;;;;;;;2.25;2.25;;;;;;;;5079241;27;46315;-71
2022/03/31 11:54:12;;;;;;;;;4.75;3.00;;;;;;;;5094264;27;45474;-71
2022/03/31 11:56:37;;;;;;;;;3.75;3.00;;;;;;;;5097780;27;45421;-70
2022/03/31 11:59:03;;;;;;;;;2.00;2.00;;;;;;;;5097502;27;45319;-70
2022/03/31 12:01:31;;;;;;;;;4.00;3.00;;;;;;;;5095141;27;46421;-71
2022/03/31 12:03:56;;;;;;;;;2.75;2.75;;;;;;;;5094285;27;45358;-71
2022/03/31 12:06:22;;;;;;;;;4.00;2.75;;;;;;;;5096553;27;45623;-71
2022/03/31 12:08:47;;;;;;;;;4.25;2.75;;;;;;;;5098336;27;45578;-71
2022/03/31 12:11:13;;;;;;;;;2.00;2.00;;;;;;;;5096641;27;46541;-70
2022/03/31 12:13:50;;;;;;;;;2.25;2.25;;;;;;;;5096177;27;45463;-70
2022/03/31 12:16:15;;;;;;;;;3.00;3.00;;;;;;;;5096092;27;45284;-70
2022/03/31 12:18:41;;;;;;;;;2.75;2.75;;;;;;;;5096218;27;45226;-70
2022/03/31 12:21:07;;;;;;;;;2.25;2.25;;;;;;;;5098038;27;46446;-70
2022/03/31 12:23:39;;;;;;;;;3.50;2.00;;;;;;;;5096934;27;45494;-70
2022/03/31 12:26:11;;;;;;;;;1.75;1.75;;;;;;;;5095237;27;45328;-70
2022/03/31 12:28:42;;;;;;;;;3.25;3.25;;;;;;;;5096109;27;45288;-70
2022/03/31 12:31:18;;;;;;;;;2.50;2.50;;;;;;;;5095745;27;46613;-70
2022/03/31 12:33:46;;;;;;;;;2.75;2.00;;;;;;;;5080139;27;45359;-70
2022/03/31 12:36:12;;;;;;;;;0.50;0.50;;;;;;;;5086454;27;45366;-71
2022/03/31 12:38:37;;;;;;;;;1.00;1.00;;;;;;;;5095070;27;45513;-71
2022/03/31 12:41:06;;;;;;;;;3.00;3.00;;;;;;;;5094919;27;45458;-70
2022/03/31 12:43:31;;;;;;;;;1.00;1.00;;;;;;;;5097419;27;45449;-71
2022/03/31 12:45:56;;;;;;;;;2.00;2.00;;;;;;;;5097523;27;45634;-71
2022/03/31 12:48:22;;;;;;;;;1.00;1.00;;;;;;;;5091787;27;45589;-71
2022/03/31 12:50:47;;;;;;;;;2.00;2.00;;;;;;;;5097947;27;45380;-71
2022/03/31 12:53:12;;;;;;;;;1.50;1.50;;;;;;;;5095467;27;45330;-70
2022/03/31 12:55:41;;;;;;;;;3.00;3.00;;;;;;;;5094063;27;45403;-71
2022/03/31 12:58:06;;;;;;;;;1.00;1.00;;;;;;;;5095460;27;45557;-71
2022/03/31 13:00:33;;;;;;;;;3.25;1.50;;;;;;;;5093843;27;46191;-70
2022/03/31 13:02:59;;;;;;;;;3.75;2.25;;;;;;;;5083308;27;45525;-71
2022/03/31 13:05:25;;;;;;;;;3.25;2.00;;;;;;;;5094922;27;45611;-70
2022/03/31 13:07:52;;;;;;;;;2.00;2.00;;;;;;;;5095614;27;45578;-71
2022/03/31 13:10:17;;;;;;;;;2.00;2.00;;;;;;;;5092862;27;46456;-71
2022/03/31 13:12:43;;;;;;;;;1.00;1.00;;;;;;;;5095447;27;45582;-70
2022/03/31 13:15:12;;;;;;;;;2.00;2.00;;;;;;;;5097283;27;45404;-71
2022/03/31 13:17:37;;;;;;;;;1.25;1.00;;;;;;;;5095197;27;45415;-71
2022/03/31 13:20:03;;;;;;;;;3.00;1.50;;;;;;;;5076260;27;47609;-71
2022/03/31 13:22:30;;;;;;;;;1.50;1.50;;;;;;;;5093627;27;45438;-70
2022/03/31 13:24:56;;;;;;;;;3.50;2.50;;;;;;;;5095103;27;45490;-71
2022/03/31 13:27:22;;;;;;;;;2.00;2.00;;;;;;;;5093124;27;45384;-71
2022/03/31 13:29:48;;;;;;;;;4.00;2.00;;;;;;;;5097287;27;46376;-70
2022/03/31 13:32:13;;;;;;;;;1.50;1.50;;;;;;;;5097059;27;45406;-70
2022/03/31 13:34:46;;;;;;;;;1.00;1.00;;;;;;;;5095690;27;45335;-71
2022/03/31 13:37:12;;;;;;;;;1.00;1.00;;;;;;;;5095242;27;45521;-70
2022/03/31 13:39:37;;;;;;;;;2.00;2.00;;;;;;;;5075648;27;46585;-70
2022/03/31 13:42:03;;;;;;;;;4.50;3.00;;;;;;;;5097056;27;45240;-70
2022/03/31 13:44:29;;;;;;;;;1.25;1.25;;;;;;;;5094993;27;45227;-70
2022/03/31 13:46:54;;;;;;;;;2.00;2.00;;;;;;;;5094748;27;45226;-70
2022/03/31 13:49:21;;;;;;;;;2.25;1.50;;;;;;;;5094275;27;45444;-71
2022/03/31 13:51:47;;;;;;;;;1.25;1.25;;;;;;;;5094962;27;45442;-70
2022/03/31 13:54:14;;;;;;;;;2.75;1.75;;;;;;;;5095179;27;45429;-70
2022/03/31 13:56:40;;;;;;;;;1.00;1.00;;;;;;;;5096095;27;45291;-71
2022/03/31 14:01:52;;;;;;;;;1.00;1.00;;;;;;;;5093553;27;45361;-70
2022/03/31 14:04:18;;;;;;;;;2.50;2.50;;;;;;;;5095357;27;45560;-71
2022/03/31 14:06:43;;;;;;;;;2.25;1.25;;;;;;;;5092729;27;45506;-71
2022/03/31 14:09:08;;;;;;;;;2.00;2.00;;;;;;;;5096237;27;46445;-70
2022/03/31 14:11:36;;;;;;;;;2.25;2.00;;;;;;;;5093675;27;45475;-70
2022/03/31 14:14:03;;;;;;;;;2.75;1.75;;;;;;;;5094990;27;45363;-70
2022/03/31 14:16:29;;;;;;;;;1.25;1.25;;;;;;;;5095471;27;45558;-71
2022/03/31 14:18:55;;;;;;;;;1.25;1.25;;;;;;;;5095652;27;46532;-71
2022/03/31 14:21:21;;;;;;;;;2.00;1.00;;;;;;;;5096174;27;45365;-71
2022/03/31 14:23:46;;;;;;;;;1.50;1.50;;;;;;;;5095909;27;45492;-70
2022/03/31 14:26:12;;;;;;;;;3.00;1.00;;;;;;;;5094336;27;45382;-71
2022/03/31 14:28:38;;;;;;;;;1.00;1.00;;;;;;;;5091175;27;45382;-71
2022/03/31 14:31:11;;;;;;;;;1.00;1.00;;;;;;;;5094299;27;45358;-71
2022/03/31 14:33:36;;;;;;;;;1.00;1.00;;;;;;;;5078759;27;45292;-71
2022/03/31 14:36:01;;;;;;;;;2.00;1.00;;;;;;;;5096792;27;45495;-70